sensor_id;sensor_type;location;lat;lon;timestamp;temperature;humidity
20885;DHT22;10602;48.000;9.654;2023-02-28T00:00:58;-2.60;1.00
20885;DHT22;10602;48.000;9.654;2023-02-28T00:03:25;-2.60;1.00
20885;DHT22;10602;48.000;9.654;2023-02-28T00:05:53;-2.60;1.00
20885;DHT22;10602;48.000;9.654;2023-02-28T00:08:20;-2.60;1.00
20885;DHT22;10602;48.000;9.654;2023-02-28T00:10:48;-2.60;1.00
20885;DHT22;10602;48.000;9.654;2023-02-28T00:13:15;-2.60;1.00
20885;DHT22;10602;48.000;9.654;2023-02-28T00:15:43;-2.60;1.00
20885;DHT22;10602;48.000;9.654;2023-02-28T00:18:11;-2.60;1.00
20885;DHT22;10602;48.000;9.654;2023-02-28T00:20:39;-2.60;1.00
20885;DHT22;10602;48.000;9.654;2023-02-28T00:23:07;-2.60;1.00
20885;DHT22;10602;48.000;9.654;2023-02-28T00:25:35;-2.60;1.00
20885;DHT22;10602;48.000;9.654;2023-02-28T00:28:02;-2.60;1.00
20885;DHT22;10602;48.000;9.654;2023-02-28T00:30:30;-2.60;1.00
20885;DHT22;10602;48.000;9.654;2023-02-28T00:32:57;-2.60;1.00
20885;DHT22;10602;48.000;9.654;2023-02-28T00:35:25;-2.60;1.00
20885;DHT22;10602;48.000;9.654;2023-02-28T00:37:53;-2.70;1.00
20885;DHT22;10602;48.000;9.654;2023-02-28T00:40:20;-2.70;1.00
20885;DHT22;10602;48.000;9.654;2023-02-28T00:42:48;-2.70;1.00
20885;DHT22;10602;48.000;9.654;2023-02-28T00:45:15;-2.70;1.00
20885;DHT22;10602;48.000;9.654;2023-02-28T00:47:43;-2.60;1.00
20885;DHT22;10602;48.000;9.654;2023-02-28T00:50:11;-2.60;1.00
20885;DHT22;10602;48.000;9.654;2023-02-28T00:52:38;-2.60;1.00
20885;DHT22;10602;48.000;9.654;2023-02-28T00:55:06;-2.60;1.00
20885;DHT22;10602;48.000;9.654;2023-02-28T00:57:33;-2.60;1.00
20885;DHT22;10602;48.000;9.654;2023-02-28T01:00:01;-2.60;99.90
20885;DHT22;10602;48.000;9.654;2023-02-28T01:02:29;-2.60;99.90
20885;DHT22;10602;48.000;9.654;2023-02-28T01:04:57;-2.60;99.90
20885;DHT22;10602;48.000;9.654;2023-02-28T01:07:25;-2.60;99.90
20885;DHT22;10602;48.000;9.654;2023-02-28T01:09:52;-2.60;99.90
20885;DHT22;10602;48.000;9.654;2023-02-28T01:12:20;-2.60;99.90
20885;DHT22;10602;48.000;9.654;2023-02-28T01:14:47;-2.60;99.90
20885;DHT22;10602;48.000;9.654;2023-02-28T01:17:15;-2.60;99.90
20885;DHT22;10602;48.000;9.654;2023-02-28T01:19:42;-2.60;99.90
20885;DHT22;10602;48.000;9.654;2023-02-28T01:22:11;-2.50;99.90
20885;DHT22;10602;48.000;9.654;2023-02-28T01:24:39;-2.60;99.90
20885;DHT22;10602;48.000;9.654;2023-02-28T01:27:09;-2.60;99.90
20885;DHT22;10602;48.000;9.654;2023-02-28T01:29:36;-2.50;99.90
20885;DHT22;10602;48.000;9.654;2023-02-28T01:32:04;-2.50;1.00
20885;DHT22;10602;48.000;9.654;2023-02-28T01:34:31;-2.60;1.00
20885;DHT22;10602;48.000;9.654;2023-02-28T01:36:59;-2.50;1.00
20885;DHT22;10602;48.000;9.654;2023-02-28T01:39:27;-2.50;99.90
20885;DHT22;10602;48.000;9.654;2023-02-28T01:41:55;-2.50;99.90
20885;DHT22;10602;48.000;9.654;2023-02-28T01:47:30;-2.60;1.00
20885;DHT22;10602;48.000;9.654;2023-02-28T01:49:58;-2.60;1.00
20885;DHT22;10602;48.000;9.654;2023-02-28T01:52:26;-2.60;99.90
20885;DHT22;10602;48.000;9.654;2023-02-28T01:54:56;-2.60;99.90
20885;DHT22;10602;48.000;9.654;2023-02-28T01:57:30;-2.60;1.00
20885;DHT22;10602;48.000;9.654;2023-02-28T02:00:03;-2.60;99.90
20885;DHT22;10602;48.000;9.654;2023-02-28T02:02:34;-2.60;1.00
20885;DHT22;10602;48.000;9.654;2023-02-28T02:05:23;-2.60;99.90
20885;DHT22;10602;48.000;9.654;2023-02-28T02:07:56;-2.60;99.90
20885;DHT22;10602;48.000;9.654;2023-02-28T02:10:44;-2.50;99.90
20885;DHT22;10602;48.000;9.654;2023-02-28T02:27:17;-2.50;99.90
20885;DHT22;10602;48.000;9.654;2023-02-28T02:32:48;-2.60;99.90
20885;DHT22;10602;48.000;9.654;2023-02-28T02:35:24;-2.60;99.90
20885;DHT22;10602;48.000;9.654;2023-02-28T02:38:07;-2.50;99.90
20885;DHT22;10602;48.000;9.654;2023-02-28T02:41:02;-2.50;99.90
20885;DHT22;10602;48.000;9.654;2023-02-28T02:43:19;-2.50;99.90
20885;DHT22;10602;48.000;9.654;2023-02-28T02:45:52;-2.50;99.90
20885;DHT22;10602;48.000;9.654;2023-02-28T02:48:24;-2.50;99.90
20885;DHT22;10602;48.000;9.654;2023-02-28T02:50:55;-2.50;99.90
20885;DHT22;10602;48.000;9.654;2023-02-28T02:53:35;-2.50;99.90
20885;DHT22;10602;48.000;9.654;2023-02-28T02:55:58;-2.50;99.90
20885;DHT22;10602;48.000;9.654;2023-02-28T02:58:30;-2.50;99.90
20885;DHT22;10602;48.000;9.654;2023-02-28T03:00:59;-2.50;99.90
20885;DHT22;10602;48.000;9.654;2023-02-28T03:03:29;-2.50;99.90
20885;DHT22;10602;48.000;9.654;2023-02-28T03:06:00;-2.40;99.90
20885;DHT22;10602;48.000;9.654;2023-02-28T03:08:29;-2.40;99.90
20885;DHT22;10602;48.000;9.654;2023-02-28T03:11:00;-2.40;1.00
20885;DHT22;10602;48.000;9.654;2023-02-28T03:22:31;-2.40;1.00
20885;DHT22;10602;48.000;9.654;2023-02-28T03:30:25;-2.40;99.90
20885;DHT22;10602;48.000;9.654;2023-02-28T03:32:57;-2.40;1.00
20885;DHT22;10602;48.000;9.654;2023-02-28T03:35:27;-2.40;1.00
20885;DHT22;10602;48.000;9.654;2023-02-28T03:38:10;-2.40;1.00
20885;DHT22;10602;48.000;9.654;2023-02-28T03:40:35;-2.40;99.90
20885;DHT22;10602;48.000;9.654;2023-02-28T03:43:08;-2.40;99.90
20885;DHT22;10602;48.000;9.654;2023-02-28T03:45:37;-2.40;99.90
20885;DHT22;10602;48.000;9.654;2023-02-28T03:48:09;-2.30;99.90
20885;DHT22;10602;48.000;9.654;2023-02-28T03:50:42;-2.40;1.00
20885;DHT22;10602;48.000;9.654;2023-02-28T03:53:38;-2.40;99.90
20885;DHT22;10602;48.000;9.654;2023-02-28T03:56:08;-2.40;1.00
20885;DHT22;10602;48.000;9.654;2023-02-28T03:58:53;-2.40;27.70
20885;DHT22;10602;48.000;9.654;2023-02-28T04:01:45;-2.40;1.00
20885;DHT22;10602;48.000;9.654;2023-02-28T04:04:09;-2.30;1.00
20885;DHT22;10602;48.000;9.654;2023-02-28T04:06:38;-2.30;99.90
20885;DHT22;10602;48.000;9.654;2023-02-28T04:09:08;-2.40;68.30
20885;DHT22;10602;48.000;9.654;2023-02-28T04:11:49;-2.40;99.90
20885;DHT22;10602;48.000;9.654;2023-02-28T04:14:15;-2.40;99.90
20885;DHT22;10602;48.000;9.654;2023-02-28T04:16:42;-2.40;99.90
20885;DHT22;10602;48.000;9.654;2023-02-28T04:19:11;-2.40;1.00
20885;DHT22;10602;48.000;9.654;2023-02-28T04:21:41;-2.40;1.00
20885;DHT22;10602;48.000;9.654;2023-02-28T04:24:21;-2.40;1.00
20885;DHT22;10602;48.000;9.654;2023-02-28T04:26:47;-2.40;1.00
20885;DHT22;10602;48.000;9.654;2023-02-28T04:29:22;-2.40;37.80
20885;DHT22;10602;48.000;9.654;2023-02-28T04:31:49;-2.50;99.90
20885;DHT22;10602;48.000;9.654;2023-02-28T04:34:20;-2.50;1.00
20885;DHT22;10602;48.000;9.654;2023-02-28T04:36:48;-2.60;1.00
20885;DHT22;10602;48.000;9.654;2023-02-28T04:39:17;-2.60;1.00
20885;DHT22;10602;48.000;9.654;2023-02-28T04:41:46;-2.50;1.00
20885;DHT22;10602;48.000;9.654;2023-02-28T04:44:14;-2.50;99.90
20885;DHT22;10602;48.000;9.654;2023-02-28T04:46:43;-2.50;1.00
20885;DHT22;10602;48.000;9.654;2023-02-28T04:49:12;-2.60;1.00
20885;DHT22;10602;48.000;9.654;2023-02-28T04:51:40;-2.60;99.90
20885;DHT22;10602;48.000;9.654;2023-02-28T04:54:08;-2.60;1.00
20885;DHT22;10602;48.000;9.654;2023-02-28T04:56:36;-2.60;99.90
20885;DHT22;10602;48.000;9.654;2023-02-28T04:59:03;-2.60;99.90
20885;DHT22;10602;48.000;9.654;2023-02-28T05:01:33;-2.60;1.00
20885;DHT22;10602;48.000;9.654;2023-02-28T05:04:02;-2.60;99.90
20885;DHT22;10602;48.000;9.654;2023-02-28T05:06:32;-2.60;1.00
20885;DHT22;10602;48.000;9.654;2023-02-28T05:09:00;-2.70;1.00
20885;DHT22;10602;48.000;9.654;2023-02-28T05:11:30;-2.70;1.00
20885;DHT22;10602;48.000;9.654;2023-02-28T05:14:06;-2.70;99.90
20885;DHT22;10602;48.000;9.654;2023-02-28T05:16:34;-2.70;1.00
20885;DHT22;10602;48.000;9.654;2023-02-28T05:19:02;-2.70;1.00
20885;DHT22;10602;48.000;9.654;2023-02-28T05:21:34;-2.80;1.00
20885;DHT22;10602;48.000;9.654;2023-02-28T05:24:04;-2.80;1.00
20885;DHT22;10602;48.000;9.654;2023-02-28T05:26:35;-2.80;1.00
20885;DHT22;10602;48.000;9.654;2023-02-28T05:29:02;-2.80;1.00
20885;DHT22;10602;48.000;9.654;2023-02-28T05:31:30;-2.80;1.00
20885;DHT22;10602;48.000;9.654;2023-02-28T05:33:58;-2.80;1.00
20885;DHT22;10602;48.000;9.654;2023-02-28T05:36:25;-2.80;99.90
20885;DHT22;10602;48.000;9.654;2023-02-28T05:38:53;-2.80;99.90
20885;DHT22;10602;48.000;9.654;2023-02-28T05:41:22;-2.80;99.90
20885;DHT22;10602;48.000;9.654;2023-02-28T05:43:49;-2.80;99.90
20885;DHT22;10602;48.000;9.654;2023-02-28T05:46:17;-2.80;99.90
20885;DHT22;10602;48.000;9.654;2023-02-28T05:48:46;-2.90;1.00
20885;DHT22;10602;48.000;9.654;2023-02-28T05:51:14;-2.90;1.00
20885;DHT22;10602;48.000;9.654;2023-02-28T05:53:42;-2.90;1.00
20885;DHT22;10602;48.000;9.654;2023-02-28T05:56:10;-2.90;1.00
20885;DHT22;10602;48.000;9.654;2023-02-28T05:58:37;-2.90;99.90
20885;DHT22;10602;48.000;9.654;2023-02-28T06:01:23;-2.90;1.00
20885;DHT22;10602;48.000;9.654;2023-02-28T06:03:51;-2.80;1.00
20885;DHT22;10602;48.000;9.654;2023-02-28T06:06:18;-2.80;1.00
20885;DHT22;10602;48.000;9.654;2023-02-28T06:08:46;-2.80;1.00
20885;DHT22;10602;48.000;9.654;2023-02-28T06:11:14;-2.80;1.00
20885;DHT22;10602;48.000;9.654;2023-02-28T06:13:41;-2.80;1.00
20885;DHT22;10602;48.000;9.654;2023-02-28T06:16:10;-2.70;1.00
20885;DHT22;10602;48.000;9.654;2023-02-28T06:18:38;-2.80;1.00
20885;DHT22;10602;48.000;9.654;2023-02-28T06:21:06;-2.80;1.00
20885;DHT22;10602;48.000;9.654;2023-02-28T06:23:35;-2.80;1.00
20885;DHT22;10602;48.000;9.654;2023-02-28T06:26:02;-2.80;1.00
20885;DHT22;10602;48.000;9.654;2023-02-28T06:28:30;-2.80;1.00
20885;DHT22;10602;48.000;9.654;2023-02-28T06:30:58;-2.80;1.00
20885;DHT22;10602;48.000;9.654;2023-02-28T06:33:25;-2.80;99.90
20885;DHT22;10602;48.000;9.654;2023-02-28T06:35:53;-2.80;1.00
20885;DHT22;10602;48.000;9.654;2023-02-28T06:38:21;-2.80;4.50
20885;DHT22;10602;48.000;9.654;2023-02-28T06:40:56;-2.90;1.00
20885;DHT22;10602;48.000;9.654;2023-02-28T06:43:25;-2.90;1.00
20885;DHT22;10602;48.000;9.654;2023-02-28T06:45:54;-2.90;37.90
20885;DHT22;10602;48.000;9.654;2023-02-28T06:48:22;-2.90;99.90
20885;DHT22;10602;48.000;9.654;2023-02-28T06:50:50;-2.80;99.90
20885;DHT22;10602;48.000;9.654;2023-02-28T06:53:18;-2.80;99.90
20885;DHT22;10602;48.000;9.654;2023-02-28T06:55:46;-2.90;80.50
20885;DHT22;10602;48.000;9.654;2023-02-28T06:58:13;-2.80;99.90
20885;DHT22;10602;48.000;9.654;2023-02-28T07:00:43;-2.80;99.90
20885;DHT22;10602;48.000;9.654;2023-02-28T07:03:11;-2.80;99.90
20885;DHT22;10602;48.000;9.654;2023-02-28T07:05:39;-2.80;59.30
20885;DHT22;10602;48.000;9.654;2023-02-28T07:08:07;-2.80;99.90
20885;DHT22;10602;48.000;9.654;2023-02-28T07:10:37;-2.80;99.90
20885;DHT22;10602;48.000;9.654;2023-02-28T07:13:05;-2.80;99.90
20885;DHT22;10602;48.000;9.654;2023-02-28T07:15:33;-2.70;99.90
20885;DHT22;10602;48.000;9.654;2023-02-28T07:18:01;-2.70;99.90
20885;DHT22;10602;48.000;9.654;2023-02-28T07:20:29;-2.70;99.90
20885;DHT22;10602;48.000;9.654;2023-02-28T07:22:57;-2.70;99.90
20885;DHT22;10602;48.000;9.654;2023-02-28T07:25:33;-2.70;90.00
20885;DHT22;10602;48.000;9.654;2023-02-28T07:28:02;-2.70;99.90
20885;DHT22;10602;48.000;9.654;2023-02-28T07:30:45;-2.80;99.90
20885;DHT22;10602;48.000;9.654;2023-02-28T07:33:14;-2.80;99.90
20885;DHT22;10602;48.000;9.654;2023-02-28T07:35:50;-2.80;99.90
20885;DHT22;10602;48.000;9.654;2023-02-28T07:38:20;-2.80;99.90
20885;DHT22;10602;48.000;9.654;2023-02-28T07:40:47;-2.80;99.90
20885;DHT22;10602;48.000;9.654;2023-02-28T07:43:14;-2.70;99.90
20885;DHT22;10602;48.000;9.654;2023-02-28T07:45:42;-2.70;99.90
20885;DHT22;10602;48.000;9.654;2023-02-28T07:48:09;-2.80;99.90
20885;DHT22;10602;48.000;9.654;2023-02-28T07:50:37;-2.70;99.90
20885;DHT22;10602;48.000;9.654;2023-02-28T07:53:04;-2.70;99.90
20885;DHT22;10602;48.000;9.654;2023-02-28T07:55:32;-2.60;99.90
20885;DHT22;10602;48.000;9.654;2023-02-28T07:57:59;-2.60;99.90
20885;DHT22;10602;48.000;9.654;2023-02-28T08:00:27;-2.50;99.90
20885;DHT22;10602;48.000;9.654;2023-02-28T08:02:55;-2.50;1.00
20885;DHT22;10602;48.000;9.654;2023-02-28T08:05:23;-2.50;1.00
20885;DHT22;10602;48.000;9.654;2023-02-28T08:07:50;-2.50;1.00
20885;DHT22;10602;48.000;9.654;2023-02-28T08:10:18;-2.40;1.00
20885;DHT22;10602;48.000;9.654;2023-02-28T08:12:45;-2.40;1.00
20885;DHT22;10602;48.000;9.654;2023-02-28T08:15:13;-2.40;1.00
20885;DHT22;10602;48.000;9.654;2023-02-28T08:17:51;-2.40;1.00
20885;DHT22;10602;48.000;9.654;2023-02-28T08:20:16;-2.30;1.00
20885;DHT22;10602;48.000;9.654;2023-02-28T08:22:47;-2.30;1.00
20885;DHT22;10602;48.000;9.654;2023-02-28T08:25:15;-2.30;1.00
20885;DHT22;10602;48.000;9.654;2023-02-28T08:27:43;-2.20;1.00
20885;DHT22;10602;48.000;9.654;2023-02-28T08:30:11;-2.20;1.00
20885;DHT22;10602;48.000;9.654;2023-02-28T08:32:40;-2.10;14.90
20885;DHT22;10602;48.000;9.654;2023-02-28T08:35:08;-2.20;1.00
20885;DHT22;10602;48.000;9.654;2023-02-28T08:37:38;-2.20;1.00
20885;DHT22;10602;48.000;9.654;2023-02-28T08:40:07;-2.20;99.90
20885;DHT22;10602;48.000;9.654;2023-02-28T08:42:35;-2.10;99.90
20885;DHT22;10602;48.000;9.654;2023-02-28T08:45:03;-2.10;99.90
20885;DHT22;10602;48.000;9.654;2023-02-28T08:47:30;-2.00;1.00
20885;DHT22;10602;48.000;9.654;2023-02-28T08:49:58;-2.00;1.00
20885;DHT22;10602;48.000;9.654;2023-02-28T08:52:43;-2.00;99.90
20885;DHT22;10602;48.000;9.654;2023-02-28T08:55:09;-1.90;1.00
20885;DHT22;10602;48.000;9.654;2023-02-28T08:57:36;-2.00;99.90
20885;DHT22;10602;48.000;9.654;2023-02-28T09:00:04;-1.90;1.00
20885;DHT22;10602;48.000;9.654;2023-02-28T09:02:32;-2.00;1.00
20885;DHT22;10602;48.000;9.654;2023-02-28T09:04:59;-2.00;1.00
20885;DHT22;10602;48.000;9.654;2023-02-28T09:07:27;-2.00;99.90
20885;DHT22;10602;48.000;9.654;2023-02-28T09:09:54;-1.90;1.00
20885;DHT22;10602;48.000;9.654;2023-02-28T09:12:34;-1.90;99.90
20885;DHT22;10602;48.000;9.654;2023-02-28T09:15:22;-1.90;99.90
20885;DHT22;10602;48.000;9.654;2023-02-28T09:17:50;-1.80;1.00
20885;DHT22;10602;48.000;9.654;2023-02-28T09:20:23;-1.80;1.00
20885;DHT22;10602;48.000;9.654;2023-02-28T09:22:47;-1.80;1.00
20885;DHT22;10602;48.000;9.654;2023-02-28T09:25:15;-1.80;1.00
20885;DHT22;10602;48.000;9.654;2023-02-28T09:27:43;-1.70;1.00
20885;DHT22;10602;48.000;9.654;2023-02-28T09:30:18;-1.60;99.90
20885;DHT22;10602;48.000;9.654;2023-02-28T09:52:36;-1.30;99.90
20885;DHT22;10602;48.000;9.654;2023-02-28T09:55:33;-1.40;1.00
20885;DHT22;10602;48.000;9.654;2023-02-28T09:58:02;-1.20;99.90
20885;DHT22;10602;48.000;9.654;2023-02-28T10:06:28;-1.00;1.00
20885;DHT22;10602;48.000;9.654;2023-02-28T10:21:37;-1.00;99.90
20885;DHT22;10602;48.000;9.654;2023-02-28T10:27:06;-0.80;1.00
20885;DHT22;10602;48.000;9.654;2023-02-28T10:29:31;-0.70;1.00
20885;DHT22;10602;48.000;9.654;2023-02-28T10:32:02;-0.50;1.00
20885;DHT22;10602;48.000;9.654;2023-02-28T10:34:31;-0.30;99.90
20885;DHT22;10602;48.000;9.654;2023-02-28T10:36:59;-0.10;1.00
20885;DHT22;10602;48.000;9.654;2023-02-28T10:39:41;0.00;73.90
20885;DHT22;10602;48.000;9.654;2023-02-28T10:42:19;0.10;1.00
20885;DHT22;10602;48.000;9.654;2023-02-28T10:44:35;-0.10;99.90
20885;DHT22;10602;48.000;9.654;2023-02-28T10:47:03;-0.20;1.00
20885;DHT22;10602;48.000;9.654;2023-02-28T10:49:35;-0.50;1.00
20885;DHT22;10602;48.000;9.654;2023-02-28T10:52:07;-0.50;1.00
20885;DHT22;10602;48.000;9.654;2023-02-28T10:54:36;-0.50;1.00
20885;DHT22;10602;48.000;9.654;2023-02-28T10:57:23;-0.40;1.00
20885;DHT22;10602;48.000;9.654;2023-02-28T10:59:51;-0.40;1.00
20885;DHT22;10602;48.000;9.654;2023-02-28T11:02:35;-0.30;1.00
20885;DHT22;10602;48.000;9.654;2023-02-28T11:05:32;-0.20;1.00
20885;DHT22;10602;48.000;9.654;2023-02-28T11:08:15;-0.20;1.00
20885;DHT22;10602;48.000;9.654;2023-02-28T11:13:35;-0.40;1.00
20885;DHT22;10602;48.000;9.654;2023-02-28T11:18:57;-0.40;1.00
20885;DHT22;10602;48.000;9.654;2023-02-28T11:21:40;-0.40;1.00
20885;DHT22;10602;48.000;9.654;2023-02-28T11:24:36;-0.50;1.00
20885;DHT22;10602;48.000;9.654;2023-02-28T11:38:53;-0.50;1.00
20885;DHT22;10602;48.000;9.654;2023-02-28T11:41:48;-0.50;1.00
20885;DHT22;10602;48.000;9.654;2023-02-28T11:51:06;-0.30;1.00
